Time;durP1;ratioP1;P1;durP2;ratioP2;P2;SDS_P1;SDS_P2;PMS_P1;PMS_P2;Temp;Humidity;BMP_temperature;BMP_pressure;BME280_temperature;BME280_humidity;BME280_pressure;Samples;Min_cycle;Max_cycle;Signal;HPM_P1;HPM_P2
2023/12/05 00:01:19;;;;;;;0.60;0.43;;;23.70;28.50;;;;;;5073901;28;20119;-66
2023/12/05 00:03:45;;;;;;;0.80;0.40;;;23.70;28.40;;;;;;5073478;28;20399;-66
2023/12/05 00:06:11;;;;;;;1.08;0.40;;;23.80;28.40;;;;;;5073545;28;20033;-67
2023/12/05 00:08:37;;;;;;;0.60;0.30;;;23.90;28.30;;;;;;5073749;28;20047;-66
2023/12/05 00:11:05;;;;;;;0.57;0.40;;;23.90;28.30;;;;;;5073405;28;20475;-66
2023/12/05 00:13:30;;;;;;;0.90;0.57;;;23.90;28.30;;;;;;5074906;28;20036;-67
2023/12/05 00:15:56;;;;;;;0.50;0.30;;;24.00;28.30;;;;;;5073351;28;20106;-67
2023/12/05 00:18:22;;;;;;;0.80;0.38;;;24.00;28.30;;;;;;5073502;28;20085;-67
2023/12/05 00:20:47;;;;;;;0.60;0.30;;;24.00;28.20;;;;;;5073085;28;20049;-67
2023/12/05 00:23:13;;;;;;;0.95;0.40;;;24.10;28.30;;;;;;5073122;28;20036;-66
2023/12/05 00:25:38;;;;;;;0.70;0.47;;;24.10;28.20;;;;;;5073226;28;20078;-66
2023/12/05 00:28:04;;;;;;;0.50;0.30;;;24.10;28.20;;;;;;5073021;28;20072;-67
2023/12/05 00:30:30;;;;;;;0.80;0.40;;;24.10;28.10;;;;;;5074305;28;20093;-67
2023/12/05 00:32:55;;;;;;;0.73;0.30;;;24.10;28.20;;;;;;5072637;28;20123;-66
2023/12/05 00:35:21;;;;;;;0.52;0.40;;;24.10;28.10;;;;;;5073246;28;20059;-66
2023/12/05 00:37:47;;;;;;;0.55;0.30;;;24.20;28.10;;;;;;5074104;28;20142;-66
2023/12/05 00:40:13;;;;;;;0.70;0.30;;;24.20;28.10;;;;;;5074075;28;20492;-66
2023/12/05 00:42:39;;;;;;;0.60;0.30;;;24.20;28.10;;;;;;5073155;28;20048;-66
2023/12/05 00:45:05;;;;;;;0.40;0.30;;;24.20;28.10;;;;;;5072798;28;20043;-67
2023/12/05 00:47:31;;;;;;;0.40;0.38;;;24.20;28.10;;;;;;5073090;28;20040;-67
2023/12/05 00:49:56;;;;;;;0.63;0.28;;;24.20;28.10;;;;;;5072555;28;20051;-66
2023/12/05 00:52:22;;;;;;;0.63;0.30;;;24.20;28.10;;;;;;5073896;28;20044;-67
2023/12/05 00:54:47;;;;;;;0.60;0.30;;;24.20;28.20;;;;;;5073860;28;20048;-66
2023/12/05 00:57:13;;;;;;;0.50;0.25;;;24.20;28.20;;;;;;5072643;28;20120;-66
2023/12/05 00:59:38;;;;;;;0.50;0.30;;;24.10;28.20;;;;;;5072204;28;20143;-67
2023/12/05 01:02:04;;;;;;;0.60;0.30;;;24.10;28.20;;;;;;5073807;28;20289;-67
2023/12/05 01:04:30;;;;;;;0.60;0.28;;;24.20;28.20;;;;;;5073705;28;20117;-66
2023/12/05 01:06:55;;;;;;;0.55;0.30;;;24.20;28.70;;;;;;5072364;28;20518;-67
2023/12/05 01:09:21;;;;;;;0.47;0.30;;;24.20;28.20;;;;;;5072306;28;20040;-67
2023/12/05 01:11:46;;;;;;;0.70;0.30;;;24.20;28.20;;;;;;5072232;28;20119;-66
2023/12/05 01:14:12;;;;;;;0.73;0.30;;;24.10;28.20;;;;;;5072388;28;20206;-67
2023/12/05 01:16:43;;;;;;;0.73;0.40;;;24.20;28.80;;;;;;5072270;28;20545;-67
2023/12/05 01:19:09;;;;;;;0.60;0.30;;;24.20;28.20;;;;;;5072306;28;20049;-67
2023/12/05 01:21:35;;;;;;;0.73;0.30;;;24.10;28.10;;;;;;5073403;28;20040;-67
2023/12/05 01:24:00;;;;;;;0.60;0.30;;;24.10;28.20;;;;;;5071971;28;20123;-67
2023/12/05 01:26:26;;;;;;;0.63;0.40;;;24.10;28.20;;;;;;5071982;28;20044;-66
2023/12/05 01:28:52;;;;;;;0.95;0.47;;;24.10;28.20;;;;;;5072118;28;20048;-66
2023/12/05 01:31:17;;;;;;;0.52;0.30;;;24.10;28.30;;;;;;5072225;28;20067;-67
2023/12/05 01:33:43;;;;;;;0.22;0.20;;;24.10;28.30;;;;;;5071926;28;20404;-66
2023/12/05 01:36:10;;;;;;;0.50;0.20;;;24.10;28.30;;;;;;5072956;28;20066;-66
2023/12/05 01:38:36;;;;;;;0.98;0.30;;;24.10;28.30;;;;;;5071964;28;20120;-66
2023/12/05 01:41:01;;;;;;;0.30;0.20;;;24.10;28.20;;;;;;5073121;28;20119;-66
2023/12/05 01:43:27;;;;;;;0.38;0.30;;;24.10;28.30;;;;;;5072184;28;20036;-67
2023/12/05 01:45:54;;;;;;;0.50;0.22;;;24.10;28.20;;;;;;5071613;28;20071;-68
2023/12/05 01:48:20;;;;;;;1.05;0.30;;;24.10;28.30;;;;;;5071902;28;20439;-68
2023/12/05 01:50:46;;;;;;;0.82;0.30;;;24.10;28.30;;;;;;5071553;28;20066;-68
2023/12/05 01:53:14;;;;;;;0.75;0.40;;;24.10;28.30;;;;;;5072798;28;20427;-68
2023/12/05 01:55:40;;;;;;;0.40;0.30;;;24.10;28.30;;;;;;5071483;28;20076;-68
2023/12/05 01:58:08;;;;;;;0.50;0.35;;;24.00;28.30;;;;;;5071815;28;20090;-68
2023/12/05 02:00:37;;;;;;;0.50;0.30;;;24.00;28.30;;;;;;5071239;28;20060;-69
2023/12/05 02:03:02;;;;;;;0.40;0.20;;;24.00;28.30;;;;;;5072574;28;20048;-68
2023/12/05 02:05:28;;;;;;;0.52;0.20;;;24.00;28.30;;;;;;5072589;28;20039;-69
2023/12/05 02:07:54;;;;;;;0.40;0.20;;;24.00;28.30;;;;;;5071169;28;20040;-68
2023/12/05 02:10:20;;;;;;;0.45;0.30;;;24.00;28.30;;;;;;5072677;28;20047;-68
2023/12/05 02:12:46;;;;;;;0.35;0.35;;;24.00;28.30;;;;;;5071095;28;20454;-69
2023/12/05 02:15:13;;;;;;;0.47;0.20;;;24.00;28.40;;;;;;5072511;28;20552;-69
2023/12/05 02:17:54;;;;;;;0.68;0.38;;;24.00;28.40;;;;;;5072295;28;20215;-69
2023/12/05 02:20:28;;;;;;;0.68;0.28;;;24.00;28.40;;;;;;5072278;28;20059;-69
2023/12/05 02:28:38;;;;;;;0.60;0.30;;;24.00;28.40;;;;;;5089439;28;20758;-67
2023/12/05 02:31:05;;;;;;;0.60;0.20;;;24.00;28.30;;;;;;5088145;28;20075;-67
2023/12/05 02:33:31;;;;;;;0.50;0.20;;;24.00;28.30;;;;;;5088279;28;20052;-66
2023/12/05 02:36:06;;;;;;;0.50;0.28;;;24.00;28.30;;;;;;5088074;28;20123;-66
2023/12/05 02:38:40;;;;;;;0.57;0.20;;;24.00;28.40;;;;;;5067778;28;20048;-66
2023/12/05 02:41:12;;;;;;;0.60;0.28;;;24.00;28.40;;;;;;5067792;28;20480;-66
2023/12/05 02:43:45;;;;;;;0.75;0.25;;;23.90;28.40;;;;;;5067665;28;20048;-66
2023/12/05 02:46:14;;;;;;;0.47;0.30;;;23.90;28.50;;;;;;5067877;28;20036;-66
2023/12/05 02:48:40;;;;;;;0.50;0.20;;;23.80;28.50;;;;;;5067608;28;20070;-67
2023/12/05 02:51:06;;;;;;;0.60;0.30;;;23.80;28.60;;;;;;5067864;28;20076;-67
2023/12/05 02:53:31;;;;;;;0.40;0.20;;;23.70;28.60;;;;;;5068783;28;20455;-67
2023/12/05 02:55:57;;;;;;;0.40;0.20;;;23.70;28.60;;;;;;5067782;28;20381;-66
2023/12/05 02:58:23;;;;;;;0.73;0.50;;;23.70;28.60;;;;;;5084231;28;20045;-67
2023/12/05 03:00:48;;;;;;;0.40;0.20;;;23.80;28.70;;;;;;5067393;28;20062;-66
2023/12/05 03:03:14;;;;;;;0.63;0.30;;;23.80;28.60;;;;;;5067307;28;20045;-66
2023/12/05 03:05:39;;;;;;;0.47;0.30;;;23.80;28.50;;;;;;5067604;28;20059;-66
2023/12/05 03:08:05;;;;;;;0.50;0.30;;;23.80;28.50;;;;;;5068848;28;20380;-67
2023/12/05 03:10:31;;;;;;;0.40;0.30;;;23.80;28.50;;;;;;5084086;28;20033;-67
2023/12/05 03:12:57;;;;;;;0.60;0.30;;;23.90;28.50;;;;;;5067036;28;20109;-67
2023/12/05 03:15:22;;;;;;;0.63;0.20;;;23.90;28.40;;;;;;5067334;28;20032;-67
2023/12/05 03:17:48;;;;;;;0.50;0.20;;;23.90;28.40;;;;;;5067334;28;20098;-67
2023/12/05 03:20:14;;;;;;;0.47;0.20;;;23.90;28.40;;;;;;5083990;28;20048;-67
2023/12/05 03:22:40;;;;;;;0.45;0.20;;;23.90;28.40;;;;;;5067197;28;20048;-67
2023/12/05 03:25:06;;;;;;;0.57;0.30;;;23.90;28.40;;;;;;5066785;28;20043;-67
2023/12/05 03:27:32;;;;;;;0.50;0.20;;;24.00;28.40;;;;;;5066533;28;20492;-66
2023/12/05 03:29:58;;;;;;;0.40;0.20;;;23.90;28.40;;;;;;5067814;28;20041;-66
2023/12/05 03:32:23;;;;;;;0.60;0.30;;;23.90;28.40;;;;;;5066988;28;20040;-67
2023/12/05 03:34:49;;;;;;;0.63;0.30;;;24.00;28.50;;;;;;5068004;28;20029;-66
2023/12/05 03:37:14;;;;;;;1.40;0.20;;;23.90;28.40;;;;;;5078833;28;20047;-67
2023/12/05 03:39:40;;;;;;;0.57;0.20;;;23.90;28.50;;;;;;5076184;28;20427;-67
2023/12/05 03:42:06;;;;;;;0.50;0.20;;;23.90;28.50;;;;;;5073351;28;20044;-66
2023/12/05 03:44:31;;;;;;;0.40;0.20;;;23.90;28.50;;;;;;5074469;28;20123;-67
2023/12/05 03:46:57;;;;;;;0.50;0.20;;;23.90;28.50;;;;;;5074624;28;20040;-66
2023/12/05 03:49:23;;;;;;;0.40;0.20;;;23.90;28.50;;;;;;5073120;28;20076;-67
2023/12/05 03:51:48;;;;;;;0.38;0.20;;;23.90;28.60;;;;;;5073165;28;20064;-67
2023/12/05 03:54:14;;;;;;;0.80;0.20;;;23.90;28.60;;;;;;5073361;28;20072;-66
2023/12/05 03:56:40;;;;;;;0.55;0.28;;;23.80;28.50;;;;;;5074397;28;20429;-67
2023/12/05 03:59:05;;;;;;;0.35;0.20;;;23.90;28.60;;;;;;5074271;28;20036;-66
2023/12/05 04:01:31;;;;;;;0.50;0.45;;;23.80;28.60;;;;;;5074113;28;20427;-67
2023/12/05 04:03:56;;;;;;;0.60;0.30;;;23.80;28.60;;;;;;5073032;28;20049;-66
2023/12/05 04:06:23;;;;;;;0.35;0.20;;;23.80;28.60;;;;;;5074206;28;20039;-66
2023/12/05 04:08:50;;;;;;;0.57;0.20;;;23.80;28.50;;;;;;5073186;28;20566;-67
2023/12/05 04:11:17;;;;;;;0.50;0.20;;;23.90;28.60;;;;;;5073059;28;20036;-66
2023/12/05 04:13:42;;;;;;;0.30;0.20;;;23.80;28.50;;;;;;5072792;28;20041;-66
2023/12/05 04:16:09;;;;;;;0.50;0.20;;;23.90;28.60;;;;;;5072904;28;20048;-67
2023/12/05 04:18:35;;;;;;;0.30;0.20;;;23.80;28.60;;;;;;5072919;28;20051;-67
2023/12/05 04:21:00;;;;;;;0.40;0.20;;;23.80;28.60;;;;;;5072584;28;20036;-67
2023/12/05 04:23:26;;;;;;;0.85;0.30;;;23.80;28.60;;;;;;5072798;28;20052;-67
2023/12/05 04:25:52;;;;;;;0.55;0.28;;;23.80;28.60;;;;;;5073843;28;20407;-66
2023/12/05 04:28:17;;;;;;;0.70;0.30;;;23.80;28.60;;;;;;5073555;28;20106;-66
2023/12/05 04:30:43;;;;;;;0.20;0.20;;;23.90;28.60;;;;;;5073535;28;20043;-67
2023/12/05 04:33:09;;;;;;;0.50;0.20;;;23.80;28.50;;;;;;5073686;28;20089;-67
2023/12/05 04:35:35;;;;;;;0.55;0.20;;;23.80;28.60;;;;;;5072611;28;20040;-66
2023/12/05 04:38:01;;;;;;;0.45;0.20;;;23.80;28.60;;;;;;5072148;28;20040;-66
2023/12/05 04:40:26;;;;;;;0.40;0.20;;;23.80;28.60;;;;;;5072323;28;20044;-67
2023/12/05 04:42:52;;;;;;;0.35;0.20;;;23.80;28.60;;;;;;5072189;28;20071;-66
2023/12/05 04:45:18;;;;;;;0.40;0.30;;;23.80;28.60;;;;;;5072445;28;20111;-66
2023/12/05 04:47:48;;;;;;;0.28;0.10;;;23.80;28.60;;;;;;5073209;28;20400;-67
2023/12/05 04:50:13;;;;;;;0.50;0.20;;;23.80;28.70;;;;;;5071369;28;20210;-66
2023/12/05 04:52:39;;;;;;;0.47;0.20;;;23.80;28.70;;;;;;5072001;28;20601;-67
2023/12/05 04:55:05;;;;;;;0.38;0.20;;;23.80;28.70;;;;;;5073301;28;20574;-66
2023/12/05 04:57:31;;;;;;;0.30;0.20;;;23.80;28.70;;;;;;5071827;28;20041;-66
2023/12/05 04:59:57;;;;;;;0.38;0.20;;;23.80;28.70;;;;;;5072135;28;20041;-67
2023/12/05 05:02:23;;;;;;;0.30;0.20;;;23.80;28.70;;;;;;5071712;28;20472;-67
2023/12/05 05:04:49;;;;;;;0.50;0.20;;;23.80;28.70;;;;;;5073019;28;20040;-66
2023/12/05 05:07:14;;;;;;;0.50;0.20;;;23.80;28.70;;;;;;5071790;28;20078;-66
2023/12/05 05:09:41;;;;;;;0.30;0.20;;;23.90;28.70;;;;;;5071925;28;20408;-66
2023/12/05 05:12:09;;;;;;;0.57;0.28;;;23.90;28.60;;;;;;5071533;28;20036;-66
2023/12/05 05:14:36;;;;;;;0.30;0.20;;;24.00;28.60;;;;;;5071581;28;20142;-67
2023/12/05 05:17:04;;;;;;;0.30;0.25;;;24.10;28.60;;;;;;5071432;28;20044;-67
2023/12/05 05:19:30;;;;;;;0.30;0.20;;;24.10;28.50;;;;;;5073008;28;20094;-68
2023/12/05 05:21:56;;;;;;;0.43;0.20;;;24.20;28.50;;;;;;5071497;28;20398;-67
2023/12/05 05:24:21;;;;;;;0.50;0.20;;;24.20;28.40;;;;;;5071371;28;20321;-67
2023/12/05 05:26:47;;;;;;;0.40;0.20;;;24.20;28.40;;;;;;5071321;28;20048;-67
2023/12/05 05:29:13;;;;;;;0.40;0.20;;;24.20;28.30;;;;;;5071468;28;20060;-67
2023/12/05 05:31:38;;;;;;;0.32;0.20;;;24.20;28.90;;;;;;5071436;28;20557;-67
2023/12/05 05:34:04;;;;;;;0.32;0.20;;;24.20;28.40;;;;;;5071413;28;20120;-66
2023/12/05 05:36:30;;;;;;;0.60;0.20;;;24.20;28.40;;;;;;5072556;28;20495;-67
2023/12/05 05:38:55;;;;;;;0.60;0.20;;;24.20;28.40;;;;;;5072581;28;20495;-67
2023/12/05 05:41:21;;;;;;;0.57;0.20;;;24.20;28.40;;;;;;5071377;28;20067;-67
2023/12/05 05:43:46;;;;;;;0.45;0.20;;;24.20;28.50;;;;;;5071020;28;20519;-66
2023/12/05 05:46:12;;;;;;;0.35;0.20;;;24.10;28.40;;;;;;5072305;28;20036;-66
2023/12/05 05:48:38;;;;;;;0.43;0.20;;;24.10;28.50;;;;;;5072084;28;20048;-66
2023/12/05 05:51:04;;;;;;;0.28;0.20;;;24.10;28.50;;;;;;5072371;28;20440;-66
2023/12/05 05:53:30;;;;;;;1.20;0.30;;;24.10;28.60;;;;;;5071145;28;20059;-67
2023/12/05 05:55:59;;;;;;;0.47;0.20;;;24.00;28.50;;;;;;5071177;28;20435;-67
2023/12/05 05:58:25;;;;;;;0.40;0.30;;;24.00;28.60;;;;;;5072035;28;20090;-67
2023/12/05 06:00:50;;;;;;;0.40;0.30;;;24.00;28.60;;;;;;5072022;28;20107;-67
2023/12/05 06:03:16;;;;;;;0.40;0.20;;;24.00;28.60;;;;;;5070831;28;20448;-66
2023/12/05 06:05:42;;;;;;;0.40;0.20;;;24.00;28.60;;;;;;5070726;28;20169;-66
2023/12/05 06:08:07;;;;;;;0.50;0.20;;;24.00;28.60;;;;;;5070785;28;20115;-66
2023/12/05 06:10:35;;;;;;;0.50;0.30;;;24.00;28.60;;;;;;5070607;28;20055;-67
2023/12/05 06:13:00;;;;;;;0.30;0.20;;;24.00;28.60;;;;;;5070646;28;20064;-66
2023/12/05 06:15:26;;;;;;;0.47;0.20;;;24.00;28.60;;;;;;5071896;28;20040;-67
2023/12/05 06:17:52;;;;;;;0.47;0.30;;;24.10;28.60;;;;;;5071858;28;20223;-67
2023/12/05 06:20:17;;;;;;;0.77;0.20;;;24.00;28.60;;;;;;5070773;28;20060;-66
2023/12/05 06:22:43;;;;;;;0.60;0.20;;;24.00;28.60;;;;;;5071826;28;20025;-67
2023/12/05 06:25:09;;;;;;;0.50;0.25;;;24.00;28.60;;;;;;5070479;28;20476;-66
2023/12/05 06:27:34;;;;;;;0.50;0.30;;;24.10;28.60;;;;;;5071543;28;20041;-67
2023/12/05 06:30:00;;;;;;;0.50;0.30;;;24.00;28.60;;;;;;5070421;28;20139;-67
2023/12/05 06:32:25;;;;;;;0.45;0.25;;;24.00;28.60;;;;;;5070689;28;20040;-66
2023/12/05 06:34:51;;;;;;;0.63;0.20;;;24.00;28.60;;;;;;5071650;28;20074;-66
2023/12/05 06:37:17;;;;;;;0.50;0.20;;;24.10;28.60;;;;;;5070605;28;20102;-66
2023/12/05 06:39:43;;;;;;;0.47;0.20;;;24.10;28.60;;;;;;5070057;28;20052;-66
2023/12/05 06:42:08;;;;;;;0.55;0.20;;;24.10;28.60;;;;;;5069517;28;20032;-66
2023/12/05 06:44:34;;;;;;;0.45;0.30;;;24.10;28.60;;;;;;5069682;28;20392;-66
2023/12/05 06:47:00;;;;;;;1.80;0.55;;;24.10;28.60;;;;;;5086800;28;20135;-67
2023/12/05 06:49:25;;;;;;;1.10;0.45;;;24.00;28.60;;;;;;5068543;28;20089;-67
2023/12/05 06:51:56;;;;;;;1.58;0.30;;;24.00;28.70;;;;;;5069276;28;20533;-67
2023/12/05 06:54:22;;;;;;;2.75;0.40;;;23.90;28.70;;;;;;5070099;28;20412;-66
2023/12/05 06:56:48;;;;;;;1.77;0.82;;;24.00;29.30;;;;;;5067390;28;20098;-64
2023/12/05 06:59:14;;;;;;;4.28;1.58;;;24.00;28.90;;;;;;5068089;28;20418;-64
2023/12/05 07:01:40;;;;;;;3.17;1.42;;;23.80;29.30;;;;;;5067302;28;20052;-64
2023/12/05 07:04:07;;;;;;;2.40;1.60;;;23.50;29.70;;;;;;5066863;28;20552;-64
2023/12/05 07:06:33;;;;;;;3.42;1.15;;;23.20;30.10;;;;;;5066489;28;20123;-70
2023/12/05 07:08:59;;;;;;;1.98;0.95;;;23.10;30.60;;;;;;5066671;28;20094;-69
2023/12/05 07:11:25;;;;;;;1.70;0.80;;;23.20;30.80;;;;;;5064855;28;20064;-67
2023/12/05 07:13:53;;;;;;;1.10;0.75;;;23.50;30.50;;;;;;5065301;28;20032;-66
2023/12/05 07:16:19;;;;;;;1.50;1.00;;;23.80;30.30;;;;;;5067381;28;20028;-66
2023/12/05 07:18:44;;;;;;;2.60;1.10;;;24.10;29.90;;;;;;5069263;28;20083;-66
2023/12/05 07:21:10;;;;;;;1.35;0.75;;;24.20;29.60;;;;;;5069934;28;20027;-66
2023/12/05 07:23:37;;;;;;;2.03;0.90;;;24.00;29.80;;;;;;5069997;28;20421;-66
2023/12/05 07:26:03;;;;;;;1.20;0.70;;;23.70;30.30;;;;;;5063052;28;20112;-68
2023/12/05 07:28:28;;;;;;;1.73;0.90;;;23.40;30.70;;;;;;5045155;28;20060;-70
2023/12/05 07:30:55;;;;;;;1.55;0.90;;;23.00;31.10;;;;;;5053833;28;20051;-70
2023/12/05 07:33:20;;;;;;;2.05;0.80;;;22.80;31.50;;;;;;5050763;28;20044;-70
2023/12/05 07:35:46;;;;;;;1.45;0.82;;;22.50;31.60;;;;;;5058814;28;20037;-71
2023/12/05 07:38:12;;;;;;;2.15;1.95;;;22.30;32.00;;;;;;5055798;28;20095;-71
2023/12/05 07:40:38;;;;;;;4.38;3.97;;;22.00;32.40;;;;;;5055537;28;20041;-66
2023/12/05 07:43:04;;;;;;;4.47;3.58;;;21.90;32.60;;;;;;5053900;28;20032;-71
2023/12/05 07:45:30;;;;;;;3.35;3.05;;;21.70;32.70;;;;;;5058562;28;20762;-71
2023/12/05 07:47:56;;;;;;;10.60;3.03;;;21.50;33.20;;;;;;5051295;28;20132;-67
2023/12/05 07:50:22;;;;;;;6.65;2.53;;;21.40;33.60;;;;;;5071278;28;20041;-68
2023/12/05 07:52:49;;;;;;;3.33;1.45;;;21.50;33.60;;;;;;5057037;28;20079;-66
2023/12/05 07:55:16;;;;;;;1.63;1.00;;;21.70;33.60;;;;;;5069512;28;20041;-66
2023/12/05 07:57:41;;;;;;;2.70;1.08;;;21.90;33.50;;;;;;5056233;28;20036;-65
2023/12/05 08:00:14;;;;;;;5.13;1.90;;;22.10;33.30;;;;;;5056470;28;20056;-68
2023/12/05 08:02:40;;;;;;;1.63;0.88;;;22.40;33.10;;;;;;5059523;28;21624;-65
2023/12/05 08:05:06;;;;;;;2.97;1.35;;;22.50;32.90;;;;;;5070550;28;20041;-66
2023/12/05 08:07:31;;;;;;;3.85;2.22;;;22.60;32.90;;;;;;5057795;28;20120;-65
2023/12/05 08:09:57;;;;;;;1.95;1.15;;;22.70;32.90;;;;;;5057978;28;20119;-68
2023/12/05 08:12:22;;;;;;;1.98;1.10;;;22.80;32.90;;;;;;5055078;28;20068;-66
2023/12/05 08:14:48;;;;;;;2.67;1.05;;;22.80;32.80;;;;;;5058516;28;20050;-66
2023/12/05 08:17:14;;;;;;;1.65;0.90;;;22.80;32.80;;;;;;5051583;28;20048;-67
2023/12/05 08:19:39;;;;;;;1.25;0.93;;;22.80;32.90;;;;;;5054314;28;20063;-66
2023/12/05 08:22:05;;;;;;;1.40;0.85;;;22.70;33.00;;;;;;5055319;28;20029;-70
2023/12/05 08:24:30;;;;;;;2.25;0.50;;;22.70;33.20;;;;;;5058675;28;20032;-66
2023/12/05 08:26:56;;;;;;;1.80;1.05;;;22.60;33.40;;;;;;5051186;28;20041;-65
2023/12/05 08:29:22;;;;;;;1.50;0.70;;;22.50;33.40;;;;;;5066526;28;20036;-67
2023/12/05 08:31:47;;;;;;;1.20;0.90;;;22.40;33.60;;;;;;5054212;28;20064;-67
2023/12/05 08:34:13;;;;;;;1.67;1.08;;;22.30;33.80;;;;;;5052616;28;20071;-66
2023/12/05 08:36:42;;;;;;;2.78;1.17;;;22.10;34.00;;;;;;5056784;28;20493;-67
2023/12/05 08:39:08;;;;;;;2.15;1.48;;;22.00;34.30;;;;;;5070069;28;20051;-68
2023/12/05 08:41:34;;;;;;;1.98;1.38;;;21.90;34.40;;;;;;5067877;28;20040;-68
2023/12/05 08:43:59;;;;;;;2.05;1.30;;;21.90;34.60;;;;;;5056054;28;20044;-68
2023/12/05 08:46:25;;;;;;;2.40;1.38;;;21.80;34.60;;;;;;5055843;28;20480;-70
2023/12/05 08:48:51;;;;;;;2.17;1.20;;;21.80;34.50;;;;;;5056351;28;20809;-69
2023/12/05 08:51:18;;;;;;;1.83;1.10;;;21.90;34.40;;;;;;5053082;28;20048;-67
2023/12/05 08:53:44;;;;;;;3.65;1.20;;;21.90;34.30;;;;;;5068167;28;20044;-67
2023/12/05 08:56:10;;;;;;;3.35;1.25;;;22.00;34.10;;;;;;5054964;28;20078;-67
2023/12/05 08:58:37;;;;;;;3.42;0.80;;;22.10;33.80;;;;;;5056560;28;20049;-67
2023/12/05 09:01:03;;;;;;;3.58;1.35;;;22.10;33.60;;;;;;5054827;28;20045;-67
2023/12/05 09:03:29;;;;;;;2.25;1.65;;;22.30;33.50;;;;;;5053039;28;20054;-65
2023/12/05 09:05:54;;;;;;;3.67;1.50;;;22.30;33.50;;;;;;5067702;28;20044;-65
2023/12/05 09:08:22;;;;;;;3.25;1.70;;;22.20;33.80;;;;;;5053943;28;20102;-66
2023/12/05 09:10:47;;;;;;;2.05;1.15;;;22.10;34.00;;;;;;5056012;28;20044;-66
2023/12/05 09:13:14;;;;;;;2.50;1.48;;;22.20;34.10;;;;;;5057249;28;20106;-67
2023/12/05 09:15:40;;;;;;;2.47;1.48;;;22.20;34.50;;;;;;5053997;28;20048;-66
2023/12/05 09:18:05;;;;;;;4.65;1.42;;;22.20;34.60;;;;;;5056474;28;20053;-66
2023/12/05 09:20:31;;;;;;;3.33;1.42;;;22.10;34.80;;;;;;5056417;28;20056;-66
2023/12/05 09:22:57;;;;;;;5.68;1.25;;;22.20;34.90;;;;;;5070489;28;20040;-68
2023/12/05 09:25:23;;;;;;;2.05;0.77;;;22.30;34.60;;;;;;5058279;28;20040;-73
2023/12/05 09:27:48;;;;;;;4.45;1.05;;;22.30;34.30;;;;;;5056055;28;20060;-68
2023/12/05 09:30:14;;;;;;;7.13;0.90;;;22.60;35.00;;;;;;5056936;28;20041;-67
2023/12/05 09:32:40;;;;;;;5.72;1.38;;;22.80;34.10;;;;;;5050351;28;20048;-67
2023/12/05 09:35:06;;;;;;;5.85;2.03;;;22.90;33.80;;;;;;5067478;28;20552;-67
2023/12/05 09:37:31;;;;;;;8.00;2.50;;;23.00;33.60;;;;;;5055447;28;20573;-68
2023/12/05 09:39:58;;;;;;;6.50;3.72;;;22.80;33.50;;;;;;5050243;28;20044;-70
2023/12/05 09:42:25;;;;;;;4.70;4.30;;;22.60;33.50;;;;;;5054253;28;20044;-71
2023/12/05 09:44:52;;;;;;;6.72;5.30;;;22.50;33.20;;;;;;5050611;28;20048;-70
2023/12/05 09:47:20;;;;;;;11.90;4.85;;;22.40;32.80;;;;;;5051864;28;20037;-70
2023/12/05 09:49:46;;;;;;;4.55;4.07;;;22.30;32.60;;;;;;5050295;28;20045;-70
2023/12/05 09:52:12;;;;;;;3.80;2.85;;;22.30;32.70;;;;;;5052882;28;20040;-67
2023/12/05 09:54:43;;;;;;;7.55;2.75;;;22.20;32.90;;;;;;5051343;28;20040;-70
2023/12/05 09:57:13;;;;;;;4.80;2.10;;;22.20;33.10;;;;;;5050325;28;20048;-68
2023/12/05 09:59:39;;;;;;;5.95;1.55;;;22.40;33.40;;;;;;5054545;28;20056;-66
2023/12/05 10:02:06;;;;;;;7.40;1.95;;;22.80;33.50;;;;;;5053776;28;20048;-67
2023/12/05 10:04:40;;;;;;;7.38;2.00;;;23.40;33.50;;;;;;5057044;28;20496;-65
2023/12/05 10:07:06;;;;;;;2.10;1.10;;;24.00;33.20;;;;;;5052280;28;20109;-67
2023/12/05 10:09:32;;;;;;;1.73;0.88;;;24.70;32.40;;;;;;5050896;28;20072;-66
2023/12/05 10:11:59;;;;;;;4.63;0.77;;;25.30;31.90;;;;;;5053141;28;20037;-65
2023/12/05 10:14:24;;;;;;;2.70;1.15;;;25.80;31.60;;;;;;5053809;28;20052;-69
2023/12/05 10:16:51;;;;;;;4.47;1.10;;;26.20;31.40;;;;;;5047922;28;20048;-67
2023/12/05 10:19:18;;;;;;;4.50;0.75;;;26.40;31.10;;;;;;5054586;28;20040;-66
2023/12/05 10:21:44;;;;;;;3.75;0.77;;;26.70;31.10;;;;;;5052446;28;20101;-67
2023/12/05 10:24:10;;;;;;;2.30;1.02;;;27.00;31.10;;;;;;5053474;28;20048;-66
2023/12/05 10:26:45;;;;;;;3.08;1.10;;;27.20;30.90;;;;;;5057132;28;20106;-65
2023/12/05 10:29:11;;;;;;;4.38;1.45;;;27.40;30.30;;;;;;5063879;28;20120;-63
2023/12/05 10:31:37;;;;;;;4.70;0.57;;;27.50;30.20;;;;;;5050293;28;20123;-66
2023/12/05 10:34:05;;;;;;;2.33;0.80;;;27.50;30.20;;;;;;5061468;28;20044;-65
2023/12/05 10:36:30;;;;;;;5.05;0.82;;;27.60;30.30;;;;;;5060497;28;20044;-66
2023/12/05 10:38:56;;;;;;;6.15;1.08;;;27.70;30.20;;;;;;5050280;28;20029;-67
2023/12/05 10:41:23;;;;;;;2.10;0.90;;;27.80;30.20;;;;;;5044495;28;20067;-66
2023/12/05 10:43:49;;;;;;;5.63;1.63;;;27.70;30.20;;;;;;5044494;28;20048;-70
2023/12/05 10:46:15;;;;;;;5.40;0.65;;;27.60;30.00;;;;;;5048627;28;20043;-66
2023/12/05 10:48:41;;;;;;;2.00;0.82;;;27.50;30.20;;;;;;5051547;28;20029;-65
2023/12/05 10:51:08;;;;;;;4.82;0.90;;;27.30;30.50;;;;;;5053349;28;20488;-64
2023/12/05 10:53:34;;;;;;;3.20;1.50;;;27.10;30.60;;;;;;5054813;28;20384;-65
2023/12/05 10:56:16;;;;;;;3.40;1.42;;;26.90;30.50;;;;;;5058828;28;20151;-66
2023/12/05 10:58:43;;;;;;;2.65;0.85;;;26.60;30.90;;;;;;5054902;28;20036;-64
2023/12/05 11:01:13;;;;;;;6.50;4.13;;;26.30;31.30;;;;;;5074262;28;20463;-67
2023/12/05 11:03:40;;;;;;;5.75;3.58;;;26.10;30.60;;;;;;5069398;28;20393;-64
2023/12/05 11:06:07;;;;;;;5.15;2.58;;;25.90;30.50;;;;;;5056204;28;20124;-68
2023/12/05 11:08:35;;;;;;;3.70;2.47;;;25.80;31.00;;;;;;5054717;28;20040;-72
2023/12/05 11:11:03;;;;;;;5.68;2.78;;;25.70;31.40;;;;;;5071023;28;20044;-68
2023/12/05 11:13:32;;;;;;;5.70;2.65;;;25.80;31.60;;;;;;5054723;28;20065;-69
2023/12/05 11:16:04;;;;;;;7.88;2.72;;;26.00;31.80;;;;;;5056399;28;20048;-68
2023/12/05 11:18:35;;;;;;;6.07;2.90;;;26.30;31.70;;;;;;5055069;28;20053;-67
2023/12/05 11:32:49;;;;;;;4.93;3.95;;;26.90;29.00;;;;;;5109980;27;20156;-69
2023/12/05 11:35:30;;;;;;;8.45;4.22;;;26.70;28.80;;;;;;5085262;28;20044;-69
2023/12/05 11:40:36;;;;;;;3.92;3.22;;;26.40;28.80;;;;;;5070624;27;20439;-68
2023/12/05 11:45:47;;;;;;;6.47;4.13;;;26.10;29.00;;;;;;5082557;27;20137;-72
2023/12/05 11:48:21;;;;;;;5.15;3.10;;;26.00;29.30;;;;;;5080156;28;20097;-72
2023/12/05 11:50:47;;;;;;;7.43;2.90;;;26.00;29.90;;;;;;5076799;28;20075;-68
2023/12/05 11:53:17;;;;;;;3.17;2.55;;;26.20;30.10;;;;;;5107210;27;20588;-73
2023/12/05 11:55:46;;;;;;;5.20;2.60;;;26.40;30.10;;;;;;5079582;28;20044;-67
2023/12/05 11:58:33;;;;;;;5.55;1.75;;;26.60;30.20;;;;;;5076732;28;20052;-69
2023/12/05 12:01:03;;;;;;;6.07;2.78;;;26.90;30.20;;;;;;5077415;28;20475;-71
2023/12/05 12:03:42;;;;;;;4.95;2.60;;;27.00;29.80;;;;;;5075375;28;20044;-70
2023/12/05 12:06:09;;;;;;;8.02;1.65;;;27.00;30.00;;;;;;5108437;27;20089;-71
2023/12/05 12:08:35;;;;;;;7.93;2.50;;;26.90;30.90;;;;;;5077162;28;20060;-69
2023/12/05 12:11:01;;;;;;;5.10;2.00;;;26.80;30.40;;;;;;5078501;28;20044;-72
2023/12/05 12:13:27;;;;;;;4.65;2.42;;;26.60;30.70;;;;;;5110352;27;20089;-70
2023/12/05 12:15:54;;;;;;;7.82;2.95;;;26.40;31.30;;;;;;5106481;27;20044;-71
2023/12/05 12:18:25;;;;;;;3.65;1.83;;;26.10;31.40;;;;;;5076160;28;20059;-72
2023/12/05 12:20:51;;;;;;;4.65;2.25;;;25.80;31.80;;;;;;5075189;28;20052;-69
2023/12/05 12:23:16;;;;;;;5.75;1.70;;;25.50;32.20;;;;;;5079922;28;20032;-70
2023/12/05 12:25:57;;;;;;;5.10;1.65;;;25.30;32.60;;;;;;5079146;28;20048;-70
2023/12/05 12:28:26;;;;;;;3.05;1.77;;;25.00;33.80;;;;;;5076617;28;20115;-69
2023/12/05 12:30:53;;;;;;;1.77;1.63;;;24.70;33.30;;;;;;5064198;28;20472;-69
2023/12/05 12:33:19;;;;;;;2.75;1.55;;;24.50;33.70;;;;;;5071121;28;20120;-69
2023/12/05 12:35:46;;;;;;;4.97;2.58;;;24.20;34.10;;;;;;5103759;28;20044;-67
2023/12/05 12:38:15;;;;;;;6.68;3.10;;;24.00;34.10;;;;;;5073304;28;20066;-67
2023/12/05 12:40:41;;;;;;;5.43;3.40;;;23.70;33.60;;;;;;5107086;28;20068;-70
2023/12/05 12:43:08;;;;;;;4.43;2.35;;;23.50;33.60;;;;;;5073186;28;20127;-69
2023/12/05 12:45:34;;;;;;;4.65;2.40;;;23.50;34.10;;;;;;5074747;28;20057;-71
2023/12/05 12:48:03;;;;;;;5.53;3.22;;;23.80;34.00;;;;;;5073406;28;20060;-69
2023/12/05 12:50:30;;;;;;;6.45;3.80;;;24.30;33.40;;;;;;5075141;28;20041;-69
2023/12/05 12:52:56;;;;;;;5.60;3.75;;;24.70;32.50;;;;;;5077226;28;20068;-70
2023/12/05 12:55:23;;;;;;;5.65;3.53;;;25.20;31.80;;;;;;5068384;28;20170;-71
2023/12/05 12:57:53;;;;;;;3.80;2.92;;;25.50;31.10;;;;;;5093122;28;20049;-70
2023/12/05 13:00:20;;;;;;;4.43;2.80;;;25.80;30.90;;;;;;5097264;28;20052;-74
2023/12/05 13:02:51;;;;;;;3.75;2.42;;;26.10;30.70;;;;;;5090966;28;20139;-76
2023/12/05 13:05:16;;;;;;;4.45;2.35;;;26.40;30.60;;;;;;5052651;28;20051;-71
2023/12/05 13:07:42;;;;;;;6.97;2.65;;;26.70;30.40;;;;;;5053311;28;20446;-70